Time;durP1;ratioP1;P1;durP2;ratioP2;P2;SDS_P1;SDS_P2;PMS_P1;PMS_P2;Temp;Humidity;BMP_temperature;BMP_pressure;BME280_temperature;BME280_humidity;BME280_pressure;Samples;Min_cycle;Max_cycle;Signal;HPM_P1;HPM_P2
2023/11/29 00:00:17;;;;;;;8.68;6.82;;;;;;;2.85;85.17;97258.31;4187405;28;20201;-89
2023/11/29 00:02:20;;;;;;;9.63;6.85;;;;;;;2.83;84.46;97262.72;4186889;28;20213;-89
2023/11/29 00:04:23;;;;;;;9.35;7.43;;;;;;;2.85;84.20;97255.72;4168677;28;20198;-90
2023/11/29 00:06:27;;;;;;;9.05;7.05;;;;;;;2.84;84.83;97261.78;4200855;28;20702;-88
2023/11/29 00:08:29;;;;;;;7.35;6.45;;;;;;;2.84;85.99;97262.63;4201183;28;20204;-89
2023/11/29 00:10:33;;;;;;;9.82;7.43;;;;;;;2.85;85.91;97268.59;4172568;28;20733;-90
2023/11/29 00:12:37;;;;;;;9.60;7.65;;;;;;;2.87;86.06;97254.75;4187951;28;20198;-89
2023/11/29 00:14:41;;;;;;;9.63;7.53;;;;;;;2.86;85.80;97260.81;4170544;28;20206;-90
2023/11/29 00:16:44;;;;;;;13.45;7.40;;;;;;;2.85;85.96;97258.31;4171863;28;20202;-90
2023/11/29 00:18:49;;;;;;;10.48;7.95;;;;;;;2.83;86.27;97253.25;4190464;28;20680;-90
2023/11/29 00:20:52;;;;;;;10.07;8.07;;;;;;;2.84;86.44;97259.22;4185040;28;20212;-90
2023/11/29 00:22:55;;;;;;;9.55;7.03;;;;;;;2.85;86.27;97255.72;4169451;28;20271;-90
2023/11/29 00:24:58;;;;;;;10.10;8.05;;;;;;;2.85;86.85;97251.41;4171424;28;20661;-89
2023/11/29 00:27:01;;;;;;;10.30;7.60;;;;;;;2.82;87.13;97248.16;4173216;28;20441;-89
2023/11/29 00:29:06;;;;;;;12.73;6.90;;;;;;;2.82;87.23;97246.41;4187256;28;20268;-89
2023/11/29 00:31:09;;;;;;;10.10;7.70;;;;;;;2.82;87.24;97246.41;4174398;28;20700;-90
2023/11/29 00:33:13;;;;;;;12.93;7.25;;;;;;;2.80;85.92;97242.28;4188918;28;21154;-91
2023/11/29 00:35:17;;;;;;;8.75;6.88;;;;;;;2.81;85.95;97249.94;4190879;28;20262;-88
2023/11/29 00:37:21;;;;;;;9.10;7.45;;;;;;;2.85;85.81;97245.44;4184017;28;20251;-88
2023/11/29 00:39:24;;;;;;;10.95;7.80;;;;;;;2.84;85.70;97243.75;4184713;28;20214;-88
2023/11/29 00:41:27;;;;;;;16.63;8.05;;;;;;;2.84;85.25;97239.47;4174737;28;20292;-88
2023/11/29 00:43:31;;;;;;;10.75;7.88;;;;;;;2.81;84.92;97239.63;4173988;28;20264;-89
2023/11/29 00:45:36;;;;;;;11.73;8.02;;;;;;;2.83;84.88;97231.81;4172395;28;20252;-88
2023/11/29 00:47:40;;;;;;;9.15;6.82;;;;;;;2.82;84.55;97235.31;4187693;28;20205;-88
2023/11/29 00:49:44;;;;;;;10.73;7.60;;;;;;;2.82;84.51;97233.56;4186312;28;20608;-88
2023/11/29 00:51:48;;;;;;;9.38;7.00;;;;;;;2.82;84.47;97236.13;4178234;28;20872;-88
2023/11/29 00:53:51;;;;;;;10.15;7.57;;;;;;;2.84;84.54;97242.03;4186548;28;20660;-89
2023/11/29 00:55:54;;;;;;;9.82;7.15;;;;;;;2.85;84.13;97227.41;4164746;28;20200;-88
2023/11/29 00:57:57;;;;;;;9.43;6.65;;;;;;;2.85;83.96;97224.84;4184784;28;20216;-88
2023/11/29 01:00:00;;;;;;;8.18;6.78;;;;;;;2.85;84.20;97227.41;4193386;28;20206;-89
2023/11/29 01:02:04;;;;;;;10.13;7.25;;;;;;;2.86;84.10;97229.09;4185592;28;20206;-88
2023/11/29 01:04:08;;;;;;;9.07;7.10;;;;;;;2.87;83.94;97228.16;4186580;28;20197;-89
2023/11/29 01:06:11;;;;;;;10.05;7.22;;;;;;;2.86;83.32;97229.09;4191698;28;20205;-89
2023/11/29 01:08:14;;;;;;;9.05;7.40;;;;;;;2.85;83.34;97219.69;4189928;28;20205;-88
2023/11/29 01:10:17;;;;;;;8.35;7.07;;;;;;;2.85;83.82;97214.56;4191586;28;20228;-89
2023/11/29 01:12:22;;;;;;;9.25;7.10;;;;;;;2.88;83.19;97222.94;4186617;28;20210;-88
2023/11/29 01:14:25;;;;;;;11.63;7.53;;;;;;;2.87;83.39;97226.44;4189751;28;20206;-88
2023/11/29 01:16:28;;;;;;;7.63;6.40;;;;;;;2.87;82.89;97226.44;4195320;28;20208;-87
2023/11/29 01:18:33;;;;;;;9.25;7.47;;;;;;;2.89;82.95;97224.59;4191811;28;20680;-88
2023/11/29 01:20:35;;;;;;;10.85;7.43;;;;;;;2.82;83.25;97227.59;4174974;28;20233;-89
2023/11/29 01:22:40;;;;;;;8.05;6.57;;;;;;;2.78;82.89;97228.63;4190926;28;20687;-88
2023/11/29 01:24:43;;;;;;;9.30;6.88;;;;;;;2.77;82.89;97228.72;4185650;28;20209;-88
2023/11/29 01:26:47;;;;;;;8.15;7.10;;;;;;;2.76;83.51;97227.91;4174894;28;20720;-88
2023/11/29 01:28:51;;;;;;;8.77;6.70;;;;;;;2.76;83.68;97235.63;4186757;28;20205;-88
2023/11/29 01:30:54;;;;;;;9.93;7.68;;;;;;;2.77;84.16;97239.88;4206365;28;20232;-89
2023/11/29 01:32:57;;;;;;;9.27;7.28;;;;;;;2.75;83.70;97233.13;4171186;28;20214;-89
2023/11/29 01:35:02;;;;;;;10.77;8.05;;;;;;;2.77;84.42;97242.44;4184871;28;20671;-88
2023/11/29 01:37:05;;;;;;;12.20;8.50;;;;;;;2.80;84.59;97237.13;4189717;28;20197;-88
2023/11/29 01:39:13;;;;;;;11.35;8.38;;;;;;;2.80;84.37;97242.28;4186880;28;20205;-89
2023/11/29 01:41:17;;;;;;;11.98;8.60;;;;;;;2.74;84.64;97234.03;4183881;28;20653;-89
2023/11/29 01:43:20;;;;;;;13.13;8.90;;;;;;;2.69;84.03;97229.16;4173866;28;20244;-88
2023/11/29 01:45:22;;;;;;;11.40;8.23;;;;;;;2.70;85.03;97228.22;4191144;28;20574;-88
2023/11/29 01:47:25;;;;;;;11.50;8.95;;;;;;;2.72;85.67;97226.41;4186249;28;20308;-88
2023/11/29 01:49:29;;;;;;;11.20;8.55;;;;;;;2.73;85.89;97229.81;4192999;28;20201;-89
2023/11/29 01:51:34;;;;;;;11.75;7.88;;;;;;;2.74;86.00;97226.31;4185938;28;20248;-88
2023/11/29 01:53:38;;;;;;;13.85;8.18;;;;;;;2.73;85.75;97225.47;4172548;28;20799;-88
2023/11/29 01:55:43;;;;;;;12.40;9.13;;;;;;;2.71;84.98;97226.50;4190422;28;20688;-88
2023/11/29 01:57:48;;;;;;;13.02;8.73;;;;;;;2.69;85.38;97224.00;4192471;28;20193;-88
2023/11/29 01:59:51;;;;;;;12.85;8.80;;;;;;;2.69;85.13;97221.41;4175476;28;20222;-88
2023/11/29 02:01:55;;;;;;;12.45;9.30;;;;;;;2.71;85.13;97223.91;4174050;28;20194;-89
2023/11/29 02:03:58;;;;;;;13.23;8.82;;;;;;;2.73;85.13;97215.19;4190056;28;20209;-89
2023/11/29 02:06:01;;;;;;;13.32;8.77;;;;;;;2.74;84.98;97226.31;4172040;28;20696;-89
2023/11/29 02:08:06;;;;;;;11.90;8.32;;;;;;;2.75;85.00;97217.69;4188410;28;20613;-88
2023/11/29 02:10:09;;;;;;;12.15;8.43;;;;;;;2.78;85.22;97222.66;4194135;28;20614;-88
2023/11/29 02:12:13;;;;;;;12.27;8.60;;;;;;;2.78;84.15;97212.38;4187253;28;20222;-89
2023/11/29 02:14:17;;;;;;;12.05;9.48;;;;;;;2.78;85.15;97223.50;4188407;28;20222;-89
2023/11/29 02:16:20;;;;;;;13.50;9.30;;;;;;;2.79;84.75;97220.84;4188673;28;20202;-90
2023/11/29 02:18:23;;;;;;;10.55;8.82;;;;;;;2.78;84.47;97228.63;4189679;28;20741;-89
2023/11/29 02:20:27;;;;;;;13.15;8.63;;;;;;;2.78;84.61;97220.91;4192879;28;20225;-90
2023/11/29 02:22:32;;;;;;;10.13;8.48;;;;;;;2.81;84.46;97223.34;4187744;28;20766;-90
2023/11/29 02:24:41;;;;;;;12.10;8.35;;;;;;;2.81;84.96;97223.34;4188270;28;20304;-90
2023/11/29 02:26:46;;;;;;;13.23;9.38;;;;;;;2.83;84.64;97224.09;4171892;28;20210;-90
2023/11/29 02:28:49;;;;;;;12.77;9.27;;;;;;;2.85;85.00;97217.94;4188539;28;20209;-90
2023/11/29 02:30:51;;;;;;;12.70;9.25;;;;;;;2.86;84.97;97222.19;4205945;28;20232;-90
2023/11/29 02:32:55;;;;;;;12.20;9.02;;;;;;;2.88;85.14;97219.53;4176552;28;20212;-89
2023/11/29 02:34:58;;;;;;;11.98;8.80;;;;;;;2.85;85.14;97215.38;4182865;28;20668;-90
2023/11/29 02:37:01;;;;;;;12.18;9.38;;;;;;;2.87;85.13;97213.56;4188235;28;20221;-90
2023/11/29 02:39:04;;;;;;;13.60;9.95;;;;;;;2.89;85.84;97216.88;4190529;28;20221;-90
2023/11/29 02:41:08;;;;;;;12.15;9.13;;;;;;;2.92;85.58;97215.91;4186846;28;20236;-90
2023/11/29 02:43:12;;;;;;;11.65;8.80;;;;;;;2.93;85.44;97213.25;4188797;28;20259;-90
2023/11/29 02:45:15;;;;;;;12.23;8.93;;;;;;;2.94;85.65;97214.06;4167236;28;20207;-89
2023/11/29 02:47:18;;;;;;;12.85;9.63;;;;;;;2.95;85.85;97211.41;4187958;28;20244;-90
2023/11/29 02:49:23;;;;;;;12.07;8.38;;;;;;;2.97;85.19;97208.75;4174047;28;20210;-90
2023/11/29 02:51:27;;;;;;;14.75;9.68;;;;;;;3.00;84.88;97208.59;4187762;28;20329;-90
2023/11/29 02:53:30;;;;;;;11.73;8.70;;;;;;;2.98;85.60;97205.28;4175148;28;20225;-90
2023/11/29 02:55:33;;;;;;;13.23;9.75;;;;;;;3.01;84.96;97202.56;4185607;28;20209;-90
2023/11/29 02:57:36;;;;;;;12.43;9.20;;;;;;;3.02;84.99;97206.75;4192601;28;20205;-90
2023/11/29 02:59:41;;;;;;;12.23;9.23;;;;;;;3.03;85.58;97205.88;4174985;28;20202;-91
2023/11/29 03:01:44;;;;;;;12.00;9.10;;;;;;;3.02;85.73;97204.19;4173424;28;20214;-90
2023/11/29 03:03:48;;;;;;;11.98;9.50;;;;;;;3.03;85.42;97198.13;4172653;28;20209;-90
2023/11/29 03:05:51;;;;;;;11.13;8.73;;;;;;;3.04;84.24;97198.06;4173788;28;20209;-90
2023/11/29 03:07:54;;;;;;;11.07;8.95;;;;;;;3.07;84.55;97199.66;4190266;28;20255;-89
2023/11/29 03:09:58;;;;;;;14.38;8.90;;;;;;;3.09;84.87;97197.81;4190218;28;20210;-90
2023/11/29 03:12:01;;;;;;;12.77;9.30;;;;;;;3.09;84.42;97198.63;4190608;28;20281;-90
2023/11/29 03:14:04;;;;;;;11.90;8.38;;;;;;;3.13;85.12;97199.28;4175747;28;20601;-90
2023/11/29 03:16:08;;;;;;;12.48;9.23;;;;;;;3.12;85.07;97192.50;4188392;28;20205;-90
2023/11/29 03:18:11;;;;;;;12.25;9.35;;;;;;;3.12;85.30;97198.47;4190442;28;20719;-90
2023/11/29 03:20:15;;;;;;;13.73;9.82;;;;;;;3.16;85.69;97199.13;4192274;28;20232;-90
2023/11/29 03:22:18;;;;;;;13.98;9.55;;;;;;;3.16;85.07;97192.25;4187008;28;20197;-90
2023/11/29 03:24:22;;;;;;;13.52;9.93;;;;;;;3.17;84.29;97196.47;4171158;28;20226;-91
2023/11/29 03:26:25;;;;;;;12.43;9.32;;;;;;;3.20;83.80;97190.34;4183663;28;20217;-90
2023/11/29 03:28:28;;;;;;;11.57;8.65;;;;;;;3.22;83.99;97191.94;4185634;28;20581;-89
2023/11/29 03:30:35;;;;;;;13.30;9.25;;;;;;;3.23;84.01;97188.41;4194884;28;20204;-90
2023/11/29 03:32:39;;;;;;;11.93;8.52;;;;;;;3.27;84.40;97186.53;4173950;28;20234;-90
2023/11/29 03:34:43;;;;;;;12.77;8.80;;;;;;;3.28;84.28;97189.03;4173174;28;20256;-90
2023/11/29 03:36:45;;;;;;;11.85;8.73;;;;;;;3.29;84.71;97186.38;4170766;28;20669;-89
2023/11/29 03:38:48;;;;;;;11.63;9.20;;;;;;;3.29;83.80;97188.94;4190141;28;20296;-90
2023/11/29 03:40:51;;;;;;;11.65;7.97;;;;;;;3.29;84.33;97186.38;4171040;28;20234;-88
2023/11/29 03:42:57;;;;;;;13.00;9.65;;;;;;;3.30;84.30;97185.44;4184337;28;20202;-90
2023/11/29 03:45:02;;;;;;;11.85;8.65;;;;;;;3.32;84.04;97186.19;4171447;28;20332;-90
2023/11/29 03:47:06;;;;;;;11.30;7.93;;;;;;;3.32;83.63;97182.75;4183553;28;20206;-89
2023/11/29 03:49:11;;;;;;;12.60;7.75;;;;;;;3.31;83.54;97174.22;4166007;28;20199;-90
2023/11/29 03:51:14;;;;;;;10.23;7.75;;;;;;;3.31;83.24;97179.38;4172387;28;20267;-90
2023/11/29 03:53:18;;;;;;;11.00;7.90;;;;;;;3.29;84.00;97168.34;4186338;28;20253;-90
2023/11/29 03:55:21;;;;;;;10.60;8.10;;;;;;;3.31;83.68;97174.22;4166264;28;20770;-90
2023/11/29 03:57:24;;;;;;;11.30;8.13;;;;;;;3.26;82.80;97169.41;4186986;28;20216;-90
2023/11/29 03:59:28;;;;;;;12.00;8.60;;;;;;;3.21;82.51;97161.09;4183217;28;20288;-90
2023/11/29 04:01:33;;;;;;;10.85;7.57;;;;;;;3.21;82.96;97156.78;4172848;28;20200;-91
2023/11/29 04:03:37;;;;;;;11.45;7.68;;;;;;;3.23;82.46;97167.00;4182328;28;20699;-90
2023/11/29 04:05:42;;;;;;;10.45;7.40;;;;;;;3.17;82.43;97152.69;4172326;28;20990;-90
2023/11/29 04:07:47;;;;;;;10.38;6.82;;;;;;;3.13;83.03;97150.38;4183516;28;20203;-90
2023/11/29 04:09:50;;;;;;;10.85;7.22;;;;;;;3.08;83.25;97157.50;4182351;28;20206;-90
2023/11/29 04:12:05;;;;;;;11.23;7.70;;;;;;;3.14;82.40;97149.47;4167658;28;20293;-90
2023/11/29 04:14:09;;;;;;;10.65;6.65;;;;;;;3.14;82.55;97152.03;4185163;28;20209;-90
2023/11/29 04:16:19;;;;;;;12.15;8.20;;;;;;;3.16;82.14;97150.19;4184854;28;20247;-90
2023/11/29 04:18:22;;;;;;;10.27;7.00;;;;;;;3.18;82.52;97140.66;4188971;28;20197;-90
2023/11/29 04:20:24;;;;;;;9.80;6.80;;;;;;;3.21;82.32;97145.66;4172686;28;20217;-90
2023/11/29 04:22:29;;;;;;;9.82;7.28;;;;;;;3.24;82.67;97148.06;4185230;28;21119;-89
2023/11/29 04:24:33;;;;;;;11.48;7.05;;;;;;;3.25;81.85;97139.41;4166530;28;20261;-90
2023/11/29 04:26:37;;;;;;;11.60;7.00;;;;;;;3.15;80.61;97145.97;4184604;28;20301;-90
2023/11/29 04:28:41;;;;;;;9.27;6.50;;;;;;;3.11;81.28;97139.31;4184101;28;20788;-90
2023/11/29 04:30:44;;;;;;;10.93;6.60;;;;;;;3.12;80.98;97143.56;4186181;28;20209;-91
2023/11/29 04:32:47;;;;;;;11.73;7.22;;;;;;;3.07;81.43;97138.66;4189762;28;20278;-91
2023/11/29 04:34:50;;;;;;;8.23;6.00;;;;;;;3.05;81.08;97139.66;4176309;28;20218;-90
2023/11/29 04:36:54;;;;;;;8.98;5.72;;;;;;;3.04;80.36;97132.88;4185458;28;20229;-90
2023/11/29 04:38:58;;;;;;;9.98;6.68;;;;;;;2.98;81.32;97133.19;4189686;28;20209;-90
2023/11/29 04:41:02;;;;;;;9.70;6.20;;;;;;;3.01;81.17;97138.19;4175033;28;20206;-90
2023/11/29 04:43:05;;;;;;;8.05;5.63;;;;;;;2.93;80.61;97132.59;4184306;28;20198;-90
2023/11/29 04:45:09;;;;;;;9.07;5.43;;;;;;;2.85;80.60;97127.84;4181849;28;20292;-90
2023/11/29 04:47:12;;;;;;;7.57;5.50;;;;;;;2.86;81.29;97131.28;4186842;28;20229;-90
2023/11/29 04:49:15;;;;;;;8.07;6.10;;;;;;;2.88;81.52;97132.03;4191571;28;20204;-90
2023/11/29 04:51:18;;;;;;;10.25;6.38;;;;;;;2.86;80.56;97126.97;4176973;28;20209;-89
2023/11/29 04:53:24;;;;;;;8.73;5.85;;;;;;;2.91;81.25;97127.53;4185928;28;20236;-90
2023/11/29 04:55:28;;;;;;;8.27;6.18;;;;;;;2.94;80.27;97126.53;4185483;28;21354;-90
2023/11/29 04:57:31;;;;;;;9.00;6.28;;;;;;;3.01;80.92;97127.88;4184357;28;20198;-90
2023/11/29 04:59:37;;;;;;;8.23;5.55;;;;;;;3.05;80.42;97119.06;4187347;28;20227;-89
2023/11/29 05:01:40;;;;;;;8.15;5.85;;;;;;;3.12;81.04;97126.38;4169859;28;20193;-89
2023/11/29 05:03:43;;;;;;;8.82;6.35;;;;;;;3.16;81.12;97111.56;4186127;28;20209;-89
2023/11/29 05:05:48;;;;;;;10.27;5.75;;;;;;;3.18;80.74;97120.06;4186660;28;20240;-89
2023/11/29 05:07:51;;;;;;;7.65;4.88;;;;;;;3.22;80.87;97117.25;4187069;28;20197;-90
2023/11/29 05:09:54;;;;;;;7.80;5.40;;;;;;;3.26;81.20;97110.97;4170869;28;20213;-89
2023/11/29 05:11:59;;;;;;;7.00;4.78;;;;;;;3.28;79.82;97109.16;4188321;28;20236;-90
2023/11/29 05:14:02;;;;;;;7.97;5.07;;;;;;;3.28;81.07;97115.16;4189239;28;20316;-89
2023/11/29 05:16:06;;;;;;;7.50;5.22;;;;;;;3.29;80.28;97118.53;4163729;28;20215;-90
2023/11/29 05:18:10;;;;;;;7.75;5.35;;;;;;;3.32;80.34;97114.06;4181301;28;20205;-89
2023/11/29 05:20:13;;;;;;;9.00;6.05;;;;;;;3.34;79.70;97116.56;4186414;28;20607;-89
2023/11/29 05:22:17;;;;;;;6.80;4.97;;;;;;;3.35;79.62;97123.34;4188034;28;20292;-90
2023/11/29 05:24:20;;;;;;;8.60;5.00;;;;;;;3.37;79.98;97119.78;4184858;28;20202;-90
2023/11/29 05:26:22;;;;;;;8.98;5.85;;;;;;;3.42;79.93;97116.94;4189066;28;20194;-90
2023/11/29 05:28:27;;;;;;;16.20;9.18;;;;;;;3.39;80.21;97115.38;4187184;28;20202;-90
2023/11/29 05:30:31;;;;;;;8.63;6.43;;;;;;;3.38;80.16;97118.03;4186303;28;20194;-90
2023/11/29 05:32:34;;;;;;;8.50;5.85;;;;;;;3.39;80.20;97125.66;4180813;28;20699;-90
2023/11/29 05:34:38;;;;;;;11.50;6.20;;;;;;;3.40;80.07;97122.19;4184656;28;20228;-89
2023/11/29 05:36:41;;;;;;;10.82;6.63;;;;;;;3.43;79.98;97124.59;4184471;28;20590;-89
2023/11/29 05:38:44;;;;;;;8.73;6.03;;;;;;;3.44;80.36;97112.53;4186625;28;20202;-90
2023/11/29 05:40:47;;;;;;;10.77;6.70;;;;;;;3.36;80.21;97120.69;4184012;28;20296;-89
2023/11/29 05:42:50;;;;;;;8.65;6.10;;;;;;;3.35;80.50;97121.63;4189860;28;20205;-88
2023/11/29 05:44:55;;;;;;;9.57;6.88;;;;;;;3.38;81.30;97128.34;4178793;28;20241;-88
2023/11/29 05:46:59;;;;;;;9.85;6.72;;;;;;;3.41;80.65;97118.72;4183868;28;20717;-88
2023/11/29 05:49:03;;;;;;;9.13;6.32;;;;;;;3.44;80.41;97123.69;4185290;28;20671;-88
2023/11/29 05:51:07;;;;;;;10.02;6.90;;;;;;;3.44;80.47;97108.22;4185413;28;20239;-88
2023/11/29 05:53:09;;;;;;;9.57;6.95;;;;;;;3.48;80.38;97117.44;4189749;28;20194;-88
2023/11/29 05:55:13;;;;;;;9.75;6.38;;;;;;;3.50;81.10;97102.72;4190993;28;20206;-88
2023/11/29 05:57:16;;;;;;;9.65;6.30;;;;;;;3.53;80.57;97105.09;4183573;28;20203;-89
2023/11/29 05:59:19;;;;;;;9.45;5.78;;;;;;;3.55;80.38;97103.28;4183731;28;20214;-89
2023/11/29 06:01:24;;;;;;;9.20;6.53;;;;;;;3.56;81.38;97109.28;4190037;28;20293;-91
2023/11/29 06:03:27;;;;;;;9.05;6.13;;;;;;;3.54;80.50;97100.81;4185774;28;20972;-89
2023/11/29 06:05:30;;;;;;;10.30;6.65;;;;;;;3.56;80.28;97117.00;4187617;28;20239;-89
2023/11/29 06:07:34;;;;;;;8.02;6.07;;;;;;;3.57;79.79;97106.59;4191069;28;20324;-89
2023/11/29 06:09:39;;;;;;;9.32;6.00;;;;;;;3.60;80.95;97110.75;4188265;28;20260;-90
2023/11/29 06:11:42;;;;;;;8.73;5.68;;;;;;;3.59;80.56;97109.91;4175486;28;20657;-91
2023/11/29 06:13:46;;;;;;;8.38;6.20;;;;;;;3.56;79.73;97111.84;4187937;28;20245;-90
2023/11/29 06:15:49;;;;;;;8.68;5.93;;;;;;;3.57;80.91;97108.38;4188626;28;20604;-89
2023/11/29 06:17:54;;;;;;;8.70;5.95;;;;;;;3.59;80.02;97107.34;4186938;28;20278;-90
2023/11/29 06:19:56;;;;;;;10.65;6.88;;;;;;;3.59;80.21;97112.50;4188209;28;20220;-90
2023/11/29 06:21:59;;;;;;;11.55;6.75;;;;;;;3.61;81.10;97107.25;4187233;28;20229;-90
2023/11/29 06:24:04;;;;;;;10.68;6.75;;;;;;;3.58;80.18;97112.59;4187543;28;20672;-90
2023/11/29 06:26:07;;;;;;;9.77;6.88;;;;;;;3.57;81.12;97118.66;4190548;28;20205;-88
2023/11/29 06:28:11;;;;;;;10.23;6.60;;;;;;;3.56;80.58;97112.66;4186936;28;20202;-89
2023/11/29 06:30:16;;;;;;;8.40;6.50;;;;;;;3.56;79.95;97117.00;4185530;28;20201;-89
2023/11/29 06:32:20;;;;;;;11.77;7.60;;;;;;;3.53;80.71;97120.56;4187841;28;20225;-88
2023/11/29 06:34:25;;;;;;;12.88;8.45;;;;;;;3.51;81.09;97125.00;4186305;28;20325;-89
2023/11/29 06:36:28;;;;;;;11.52;8.18;;;;;;;3.47;80.89;97113.22;4171856;28;20593;-89
2023/11/29 06:38:38;;;;;;;12.88;7.68;;;;;;;3.48;80.71;97114.03;4170178;28;20253;-90
2023/11/29 06:40:42;;;;;;;11.75;8.05;;;;;;;3.43;80.97;97127.19;4189156;28;20209;-91
2023/11/29 06:42:53;;;;;;;12.52;8.60;;;;;;;3.38;81.09;97121.47;4186067;28;20205;-90
2023/11/29 06:44:57;;;;;;;12.57;8.05;;;;;;;3.40;81.74;97116.22;4184744;28;20565;-91
2023/11/29 06:47:01;;;;;;;12.00;8.30;;;;;;;3.47;82.28;97123.53;4182418;28;20193;-89
2023/11/29 06:49:04;;;;;;;11.50;7.20;;;;;;;3.46;82.10;97116.69;4173844;28;20202;-91
2023/11/29 06:51:09;;;;;;;12.10;8.20;;;;;;;3.44;82.00;97113.38;4169744;28;20195;-90
2023/11/29 06:53:12;;;;;;;12.85;8.05;;;;;;;3.44;82.49;97107.38;4186715;28;20205;-91
2023/11/29 06:55:15;;;;;;;12.15;8.38;;;;;;;3.41;82.01;97118.72;4170338;28;20245;-90
2023/11/29 06:57:18;;;;;;;13.90;8.70;;;;;;;3.40;83.08;97116.22;4188837;28;20209;-91
2023/11/29 06:59:21;;;;;;;12.55;8.50;;;;;;;3.38;82.27;97116.31;4179516;28;20581;-89
2023/11/29 07:01:25;;;;;;;11.60;7.55;;;;;;;3.38;82.21;97118.88;4186253;28;20202;-89
2023/11/29 07:03:28;;;;;;;11.52;8.20;;;;;;;3.33;83.04;97120.03;4185252;28;20209;-89
2023/11/29 07:05:31;;;;;;;11.68;8.27;;;;;;;3.34;83.06;97114.81;4173837;28;20214;-91
2023/11/29 07:07:36;;;;;;;12.57;7.82;;;;;;;3.31;82.31;97122.69;4209865;28;20209;-92
2023/11/29 07:09:41;;;;;;;10.68;7.13;;;;;;;3.30;82.85;97125.34;4191033;28;20205;-91
2023/11/29 07:11:46;;;;;;;11.02;7.00;;;;;;;3.34;82.78;97121.72;4178525;28;20202;-92
2023/11/29 07:13:49;;;;;;;10.85;7.57;;;;;;;3.32;83.24;97123.53;4176666;28;20233;-91
2023/11/29 07:15:56;;;;;;;12.27;7.95;;;;;;;3.32;83.71;97119.22;4188458;28;20202;-92
2023/11/29 07:18:01;;;;;;;10.43;7.05;;;;;;;3.33;83.44;97120.84;4178564;28;20201;-90
2023/11/29 07:20:06;;;;;;;11.40;6.93;;;;;;;3.34;83.20;97114.81;4170034;28;20206;-92
2023/11/29 07:22:10;;;;;;;12.13;8.07;;;;;;;3.34;82.73;97114.81;4188302;28;20199;-90
2023/11/29 07:24:15;;;;;;;11.18;7.30;;;;;;;3.33;82.81;97115.72;4192335;28;20764;-91
2023/11/29 07:26:18;;;;;;;10.63;7.82;;;;;;;3.34;83.27;97119.94;4173839;28;20303;-91
2023/11/29 07:28:21;;;;;;;10.75;7.03;;;;;;;3.34;82.49;97121.72;4190768;28;20220;-91
2023/11/29 07:30:25;;;;;;;9.95;6.85;;;;;;;3.31;82.99;97112.41;4195781;28;20197;-91
2023/11/29 07:32:28;;;;;;;12.38;8.00;;;;;;;3.33;83.42;97114.88;4193228;28;20322;-91
2023/11/29 07:34:31;;;;;;;12.52;7.82;;;;;;;3.36;82.98;97115.53;4188904;28;20210;-91
2023/11/29 07:36:34;;;;;;;10.25;6.80;;;;;;;3.39;83.46;97125.66;4172619;28;20198;-90
2023/11/29 07:38:38;;;;;;;11.77;7.75;;;;;;;3.41;83.24;97123.88;4183935;28;20202;-91
2023/11/29 07:40:42;;;;;;;12.30;8.02;;;;;;;3.41;82.80;97113.56;4177709;28;20195;-91
2023/11/29 07:42:46;;;;;;;12.32;8.00;;;;;;;3.42;83.03;97117.78;4174996;28;20903;-91
2023/11/29 07:44:49;;;;;;;11.90;7.55;;;;;;;3.45;83.50;97114.22;4173816;28;20206;-91
2023/11/29 07:46:51;;;;;;;12.07;7.68;;;;;;;3.45;83.09;97112.44;4191014;28;20197;-91
2023/11/29 07:48:54;;;;;;;10.90;7.55;;;;;;;3.44;82.58;97113.38;4186506;28;20206;-91
2023/11/29 07:50:58;;;;;;;11.73;8.00;;;;;;;3.47;83.11;97120.09;4192857;28;20282;-92
2023/11/29 07:53:00;;;;;;;11.90;7.88;;;;;;;3.48;83.02;97125.16;4172021;28;20206;-91
2023/11/29 07:55:04;;;;;;;12.73;7.93;;;;;;;3.49;83.05;97123.44;4195238;28;20292;-91
2023/11/29 07:57:08;;;;;;;11.25;6.78;;;;;;;3.51;83.33;97121.59;4184244;28;20206;-91
2023/11/29 07:59:12;;;;;;;10.40;7.13;;;;;;;3.59;83.11;97117.66;4171142;28;20203;-91
2023/11/29 08:01:15;;;;;;;10.93;7.07;;;;;;;3.67;83.68;97123.22;4173802;28;20202;-91
2023/11/29 08:03:19;;;;;;;9.02;6.30;;;;;;;3.67;82.57;97114.63;4188035;28;20256;-92
2023/11/29 08:05:27;;;;;;;11.55;7.25;;;;;;;3.71;82.68;97116.13;4186552;28;20285;-90
2023/11/29 08:07:32;;;;;;;10.13;6.53;;;;;;;3.75;83.27;97116.69;4178359;28;20236;-91
2023/11/29 08:09:36;;;;;;;9.88;6.80;;;;;;;3.81;82.45;97113.75;4186848;28;20221;-91
2023/11/29 08:11:39;;;;;;;11.63;7.70;;;;;;;3.94;81.62;97129.34;4171177;28;20199;-91
2023/11/29 08:13:43;;;;;;;11.05;6.82;;;;;;;3.98;81.41;97125.69;4202393;28;20675;-91
2023/11/29 08:15:47;;;;;;;9.50;6.68;;;;;;;3.97;81.68;97129.16;4188444;28;20723;-91
2023/11/29 08:17:50;;;;;;;10.20;6.93;;;;;;;3.99;81.45;97125.59;4187908;28;20212;-91
2023/11/29 08:19:54;;;;;;;11.82;7.50;;;;;;;3.99;82.18;97125.59;4172783;28;20207;-91
2023/11/29 08:21:56;;;;;;;10.00;6.93;;;;;;;4.02;81.45;97132.34;4180698;28;20225;-91
2023/11/29 08:23:59;;;;;;;13.82;7.00;;;;;;;4.02;82.09;97127.19;4171416;28;20235;-91
2023/11/29 08:26:04;;;;;;;11.00;7.22;;;;;;;4.02;82.72;97132.34;4176116;28;20208;-90
2023/11/29 08:28:07;;;;;;;12.68;7.45;;;;;;;3.99;82.23;97127.34;4185669;28;20202;-91
2023/11/29 08:30:13;;;;;;;13.57;7.97;;;;;;;4.00;81.99;97121.25;4186286;28;20206;-91
2023/11/29 08:32:16;;;;;;;12.73;7.85;;;;;;;4.02;81.65;97120.25;4171491;28;20224;-92
2023/11/29 08:34:19;;;;;;;10.98;7.25;;;;;;;4.01;81.17;97126.31;4186001;28;20564;-91
2023/11/29 08:36:23;;;;;;;12.52;8.52;;;;;;;4.03;82.31;97129.66;4190319;28;20221;-91
2023/11/29 08:38:25;;;;;;;10.35;7.18;;;;;;;4.06;81.73;97144.13;4185841;28;20209;-91
2023/11/29 08:40:28;;;;;;;10.10;6.90;;;;;;;4.07;81.09;97125.16;4185569;28;20209;-90
2023/11/29 08:42:32;;;;;;;13.20;7.82;;;;;;;4.05;81.32;97120.09;4192268;28;20220;-90
2023/11/29 08:44:35;;;;;;;8.90;6.07;;;;;;;4.02;81.92;97122.03;4183525;28;20639;-91
2023/11/29 08:46:40;;;;;;;9.48;6.78;;;;;;;4.06;82.84;97121.75;4168910;28;20205;-90
2023/11/29 08:48:43;;;;;;;10.43;7.28;;;;;;;4.12;82.37;97120.53;4187545;28;20657;-91
2023/11/29 08:50:48;;;;;;;10.18;7.07;;;;;;;4.14;82.34;97116.16;4175324;28;20237;-91
2023/11/29 08:52:51;;;;;;;10.20;7.05;;;;;;;4.16;80.92;97120.28;4191925;28;20678;-91
2023/11/29 08:54:54;;;;;;;12.20;7.45;;;;;;;4.16;81.68;97117.69;4176228;28;20206;-91
2023/11/29 08:56:57;;;;;;;11.07;7.10;;;;;;;4.18;81.63;97115.88;4189602;28;20247;-89
2023/11/29 08:59:01;;;;;;;10.32;7.20;;;;;;;4.20;80.99;97115.78;4171712;28;20202;-89
2023/11/29 09:01:04;;;;;;;9.73;6.63;;;;;;;4.20;81.10;97117.44;4186885;28;20218;-89
2023/11/29 09:03:10;;;;;;;9.70;6.75;;;;;;;4.22;81.92;97113.03;4190618;28;20201;-89
2023/11/29 09:05:12;;;;;;;9.77;6.35;;;;;;;4.27;81.27;97113.56;4188855;28;20247;-89
2023/11/29 09:07:16;;;;;;;10.18;6.90;;;;;;;4.28;81.11;97110.09;4186800;28;20205;-89
2023/11/29 09:09:19;;;;;;;9.68;6.93;;;;;;;4.32;81.47;97118.47;4165989;28;20860;-91
2023/11/29 09:11:22;;;;;;;9.80;6.80;;;;;;;4.30;79.95;97108.22;4194710;28;20205;-92
2023/11/29 09:13:26;;;;;;;9.93;6.93;;;;;;;4.33;81.22;97110.63;4186830;28;20228;-89
2023/11/29 09:15:29;;;;;;;11.30;7.47;;;;;;;4.37;80.60;97114.66;4185637;28;20748;-93
2023/11/29 09:17:32;;;;;;;12.00;7.50;;;;;;;4.40;79.95;97109.31;4169766;28;20221;-93
2023/11/29 09:19:37;;;;;;;10.10;6.57;;;;;;;4.47;81.30;97113.22;4182248;28;20201;-92
2023/11/29 09:21:40;;;;;;;9.65;6.72;;;;;;;4.54;80.25;97122.25;4172739;28;20205;-93
2023/11/29 09:23:44;;;;;;;10.00;6.20;;;;;;;4.59;80.43;97116.81;4186107;28;20205;-92
2023/11/29 09:25:48;;;;;;;10.95;6.50;;;;;;;4.58;78.83;97115.97;4175964;28;20202;-93
2023/11/29 09:27:51;;;;;;;7.55;6.10;;;;;;;4.56;80.64;97119.59;4187430;28;20222;-93
2023/11/29 09:29:54;;;;;;;8.30;6.10;;;;;;;4.60;80.40;97114.13;4185311;28;20260;-93
2023/11/29 09:31:58;;;;;;;8.25;6.18;;;;;;;4.58;80.36;97110.81;4175398;28;20262;-93
2023/11/29 09:34:01;;;;;;;7.03;5.25;;;;;;;4.55;79.74;97117.91;4178576;28;20198;-92
2023/11/29 09:36:06;;;;;;;8.65;6.07;;;;;;;4.56;80.26;97115.25;4183869;28;20311;-92
2023/11/29 09:38:10;;;;;;;7.38;5.60;;;;;;;4.58;80.12;97109.97;4192850;28;20597;-92
2023/11/29 09:40:15;;;;;;;7.90;5.50;;;;;;;4.54;80.16;97106.75;4190753;28;20229;-93
2023/11/29 09:42:19;;;;;;;7.50;5.47;;;;;;;4.62;80.17;97109.72;4194486;28;20210;-92
2023/11/29 09:44:25;;;;;;;9.38;6.20;;;;;;;4.65;79.40;97106.94;4188025;28;20198;-93